Time;durP1;ratioP1;P1;durP2;ratioP2;P2;SDS_P1;SDS_P2;PMS_P1;PMS_P2;Temp;Humidity;BMP_temperature;BMP_pressure;BME280_temperature;BME280_humidity;BME280_pressure;Samples;Min_cycle;Max_cycle;Signal;HPM_P1;HPM_P2
2023/12/06 06:00:17;;;;;;;1.00;0.90;;;;;;;;;;1747280;28;20413;-78
2023/12/06 06:01:08;;;;;;;0.95;0.85;;;;;;;;;;1750258;28;20441;-79
2023/12/06 06:02:00;;;;;;;1.13;0.80;;;;;;;;;;1749235;28;20205;-78
2023/12/06 06:02:52;;;;;;;1.00;0.90;;;;;;;;;;1747032;28;20211;-78
2023/12/06 06:03:43;;;;;;;1.65;1.00;;;;;;;;;;1748308;28;20210;-79
2023/12/06 06:04:34;;;;;;;1.20;1.00;;;;;;;;;;1747683;28;20207;-78
2023/12/06 06:05:26;;;;;;;1.88;0.80;;;;;;;;;;1748089;28;20205;-79
2023/12/06 06:06:17;;;;;;;1.00;0.90;;;;;;;;;;1747288;28;20232;-78
2023/12/06 06:07:09;;;;;;;1.00;0.90;;;;;;;;;;1747739;28;20199;-79
2023/12/06 06:08:00;;;;;;;1.20;1.10;;;;;;;;;;1743561;28;20215;-80
2023/12/06 06:08:51;;;;;;;1.30;0.95;;;;;;;;;;1750665;28;20277;-79
2023/12/06 06:09:44;;;;;;;1.48;1.23;;;;;;;;;;1749208;28;20179;-78
2023/12/06 06:10:35;;;;;;;1.00;0.90;;;;;;;;;;1746523;28;20210;-80
2023/12/06 06:11:26;;;;;;;1.20;1.10;;;;;;;;;;1752030;28;20203;-80
2023/12/06 06:12:18;;;;;;;0.80;0.80;;;;;;;;;;1746822;28;20262;-79
2023/12/06 06:13:09;;;;;;;1.10;1.00;;;;;;;;;;1745879;28;20191;-79
2023/12/06 06:14:01;;;;;;;1.00;0.90;;;;;;;;;;1744890;28;20270;-79
2023/12/06 06:14:53;;;;;;;1.10;0.90;;;;;;;;;;1749625;28;20191;-78
2023/12/06 06:15:45;;;;;;;0.90;0.80;;;;;;;;;;1746244;28;20199;-79
2023/12/06 06:16:37;;;;;;;1.40;1.10;;;;;;;;;;1746338;28;20218;-80
2023/12/06 06:17:28;;;;;;;1.10;1.00;;;;;;;;;;1747696;28;20199;-80
2023/12/06 06:18:20;;;;;;;1.10;1.00;;;;;;;;;;1747050;28;20220;-79
2023/12/06 06:19:11;;;;;;;1.33;0.90;;;;;;;;;;1747060;28;20274;-78
2023/12/06 06:20:05;;;;;;;1.10;1.00;;;;;;;;;;1746046;28;20214;-78
2023/12/06 06:20:57;;;;;;;1.10;1.00;;;;;;;;;;1747889;28;20262;-79
2023/12/06 06:21:49;;;;;;;1.20;1.10;;;;;;;;;;1748435;28;20222;-79
2023/12/06 06:22:41;;;;;;;1.50;0.80;;;;;;;;;;1748328;28;20218;-78
2023/12/06 06:23:33;;;;;;;0.80;0.77;;;;;;;;;;1747741;28;20229;-77
2023/12/06 06:24:25;;;;;;;1.60;0.80;;;;;;;;;;1743035;28;20256;-78
2023/12/06 06:25:16;;;;;;;1.20;0.98;;;;;;;;;;1746577;28;20654;-78
2023/12/06 06:26:08;;;;;;;0.80;0.77;;;;;;;;;;1743074;28;20665;-78
2023/12/06 06:27:02;;;;;;;1.65;1.27;;;;;;;;;;1742222;28;20187;-78
2023/12/06 06:27:53;;;;;;;1.42;1.05;;;;;;;;;;1744533;28;20206;-78
2023/12/06 06:28:44;;;;;;;1.30;1.20;;;;;;;;;;1745060;28;20194;-78
2023/12/06 06:29:37;;;;;;;1.20;1.10;;;;;;;;;;1745952;28;20262;-77
2023/12/06 06:30:29;;;;;;;1.45;0.90;;;;;;;;;;1746894;28;20234;-79
2023/12/06 06:31:22;;;;;;;1.13;1.02;;;;;;;;;;1745568;28;20206;-78
2023/12/06 06:32:13;;;;;;;1.38;1.20;;;;;;;;;;1747458;28;20210;-79
2023/12/06 06:33:04;;;;;;;1.17;1.08;;;;;;;;;;1747978;28;20225;-78
2023/12/06 06:34:01;;;;;;;2.05;1.13;;;;;;;;;;1747820;28;20219;-79
2023/12/06 06:34:52;;;;;;;1.63;1.00;;;;;;;;;;1747899;28;20211;-79
2023/12/06 06:35:43;;;;;;;2.25;0.90;;;;;;;;;;1748187;28;20203;-78
2023/12/06 06:36:36;;;;;;;1.55;1.30;;;;;;;;;;1747405;28;20196;-78
2023/12/06 06:37:27;;;;;;;0.90;0.90;;;;;;;;;;1747794;28;20199;-78
2023/12/06 06:38:19;;;;;;;1.55;1.08;;;;;;;;;;1747728;28;20306;-79
2023/12/06 06:39:12;;;;;;;0.80;0.80;;;;;;;;;;1747811;28;20214;-77
2023/12/06 06:40:07;;;;;;;1.40;1.20;;;;;;;;;;1745553;28;20229;-78
2023/12/06 06:40:58;;;;;;;1.20;1.00;;;;;;;;;;1745811;28;20199;-77
2023/12/06 06:41:49;;;;;;;1.20;1.10;;;;;;;;;;1742728;28;20218;-76
2023/12/06 06:42:41;;;;;;;1.40;1.10;;;;;;;;;;1742722;28;20708;-77
2023/12/06 06:43:33;;;;;;;1.02;0.93;;;;;;;;;;1742297;28;20679;-75
2023/12/06 06:44:24;;;;;;;1.30;1.20;;;;;;;;;;1742997;28;20699;-78
2023/12/06 06:45:16;;;;;;;1.10;1.00;;;;;;;;;;1743568;28;20667;-78
2023/12/06 06:46:08;;;;;;;1.05;0.95;;;;;;;;;;1744328;28;20256;-78
2023/12/06 06:47:01;;;;;;;1.30;1.20;;;;;;;;;;1744494;28;20198;-78
2023/12/06 06:47:54;;;;;;;1.20;1.10;;;;;;;;;;1747357;28;20213;-79
2023/12/06 06:48:45;;;;;;;1.98;1.23;;;;;;;;;;1743232;28;20195;-78
2023/12/06 06:49:40;;;;;;;1.85;1.00;;;;;;;;;;1746897;28;20283;-79
2023/12/06 06:50:31;;;;;;;1.30;1.20;;;;;;;;;;1741993;28;20208;-77
2023/12/06 06:51:32;;;;;;;1.00;0.90;;;;;;;;;;1745010;28;20203;-78
2023/12/06 06:52:23;;;;;;;2.65;0.98;;;;;;;;;;1743031;28;20246;-77
2023/12/06 06:53:15;;;;;;;1.02;0.90;;;;;;;;;;1745059;28;20206;-79
2023/12/06 06:54:06;;;;;;;2.08;1.20;;;;;;;;;;1741867;28;20206;-75
2023/12/06 06:54:59;;;;;;;1.77;1.30;;;;;;;;;;1741945;28;20258;-75
2023/12/06 06:55:50;;;;;;;1.70;1.13;;;;;;;;;;1741931;28;20211;-75
2023/12/06 06:56:42;;;;;;;2.20;1.00;;;;;;;;;;1741717;28;20195;-75
2023/12/06 06:57:33;;;;;;;1.30;1.20;;;;;;;;;;1741980;28;20207;-74
2023/12/06 06:58:24;;;;;;;1.20;1.10;;;;;;;;;;1740995;28;20730;-76
2023/12/06 06:59:16;;;;;;;1.38;1.25;;;;;;;;;;1740724;28;20264;-75
2023/12/06 07:00:09;;;;;;;1.63;1.20;;;;;;;;;;1741082;28;20230;-76
2023/12/06 07:01:01;;;;;;;1.20;1.10;;;;;;;;;;1738744;28;20196;-75
2023/12/06 07:01:53;;;;;;;1.60;1.40;;;;;;;;;;1739413;28;20199;-76
2023/12/06 07:02:45;;;;;;;1.42;1.33;;;;;;;;;;1741959;28;20206;-76
2023/12/06 07:03:37;;;;;;;1.33;1.23;;;;;;;;;;1741384;28;20203;-75
2023/12/06 07:04:28;;;;;;;1.60;1.10;;;;;;;;;;1741735;28;20694;-76
2023/12/06 07:05:19;;;;;;;1.10;1.00;;;;;;;;;;1741142;28;20617;-75
2023/12/06 07:06:12;;;;;;;1.40;1.30;;;;;;;;;;1735757;28;20204;-73
2023/12/06 07:07:03;;;;;;;1.50;1.40;;;;;;;;;;1737043;28;20215;-75
2023/12/06 07:07:55;;;;;;;2.45;1.90;;;;;;;;;;1741660;28;20209;-74
2023/12/06 07:08:46;;;;;;;1.30;1.20;;;;;;;;;;1741349;28;20214;-75
2023/12/06 07:09:37;;;;;;;1.25;1.10;;;;;;;;;;1740926;28;20211;-75
2023/12/06 07:10:29;;;;;;;1.63;1.33;;;;;;;;;;1743189;28;20226;-74
2023/12/06 07:11:20;;;;;;;1.63;1.52;;;;;;;;;;1749754;28;20191;-72
2023/12/06 07:12:11;;;;;;;1.40;1.30;;;;;;;;;;1742511;28;20191;-74
2023/12/06 07:13:03;;;;;;;1.50;1.38;;;;;;;;;;1741988;28;20201;-76
2023/12/06 07:13:54;;;;;;;1.17;1.08;;;;;;;;;;1741952;28;20652;-75
2023/12/06 07:14:45;;;;;;;1.35;1.10;;;;;;;;;;1742033;28;20631;-75
2023/12/06 07:15:38;;;;;;;1.70;1.33;;;;;;;;;;1741993;28;20207;-76
2023/12/06 07:16:29;;;;;;;2.50;1.30;;;;;;;;;;1741558;28;20214;-75
2023/12/06 07:17:21;;;;;;;1.90;1.35;;;;;;;;;;1741925;28;20239;-75
2023/12/06 07:18:13;;;;;;;1.67;1.58;;;;;;;;;;1741954;28;20234;-75
2023/12/06 07:19:04;;;;;;;1.30;1.20;;;;;;;;;;1741923;28;20690;-75
2023/12/06 07:19:57;;;;;;;1.90;1.10;;;;;;;;;;1741901;28;20227;-75
2023/12/06 07:20:48;;;;;;;1.30;1.20;;;;;;;;;;1741861;28;20211;-75
2023/12/06 07:21:40;;;;;;;1.80;1.40;;;;;;;;;;1741974;28;20199;-75
2023/12/06 07:22:32;;;;;;;1.40;1.30;;;;;;;;;;1741909;28;20316;-75
2023/12/06 07:23:23;;;;;;;2.20;1.40;;;;;;;;;;1741631;28;20226;-75
2023/12/06 07:24:14;;;;;;;1.38;1.27;;;;;;;;;;1741687;28;20725;-75
2023/12/06 07:25:06;;;;;;;1.45;1.20;;;;;;;;;;1741949;28;20286;-75
2023/12/06 07:25:58;;;;;;;1.40;1.30;;;;;;;;;;1742115;28;20215;-77
2023/12/06 07:26:50;;;;;;;1.45;1.30;;;;;;;;;;1741675;28;20233;-75
2023/12/06 07:27:44;;;;;;;1.20;1.10;;;;;;;;;;1741863;28;20199;-76
2023/12/06 07:28:35;;;;;;;1.52;1.40;;;;;;;;;;1741816;28;20210;-76
2023/12/06 07:29:27;;;;;;;1.80;1.30;;;;;;;;;;1741779;28;20199;-76
2023/12/06 07:30:19;;;;;;;1.40;1.30;;;;;;;;;;1739921;28;20202;-76
2023/12/06 07:31:11;;;;;;;1.30;1.20;;;;;;;;;;1740159;28;20217;-75
2023/12/06 07:32:02;;;;;;;1.35;1.13;;;;;;;;;;1740795;28;20210;-76
2023/12/06 07:32:53;;;;;;;1.98;1.40;;;;;;;;;;1744886;28;20694;-76
2023/12/06 07:33:47;;;;;;;1.50;1.30;;;;;;;;;;1744378;28;20195;-76
2023/12/06 07:34:39;;;;;;;1.40;1.30;;;;;;;;;;1742805;28;20206;-77
2023/12/06 07:35:31;;;;;;;1.55;1.15;;;;;;;;;;1749220;28;20194;-77
2023/12/06 07:36:22;;;;;;;1.30;1.20;;;;;;;;;;1737942;28;20196;-75
2023/12/06 07:37:13;;;;;;;1.50;1.40;;;;;;;;;;1741700;28;20249;-75
2023/12/06 07:38:08;;;;;;;1.30;1.10;;;;;;;;;;1746218;28;20211;-76
2023/12/06 07:38:59;;;;;;;1.20;1.10;;;;;;;;;;1744721;28;20618;-75
2023/12/06 07:39:50;;;;;;;1.60;1.30;;;;;;;;;;1744372;28;20233;-76
2023/12/06 07:40:42;;;;;;;1.70;1.35;;;;;;;;;;1747204;28;20207;-76
2023/12/06 07:41:33;;;;;;;1.25;1.08;;;;;;;;;;1742167;28;20217;-76
2023/12/06 07:42:25;;;;;;;1.48;1.35;;;;;;;;;;1743263;28;20199;-77
2023/12/06 07:43:16;;;;;;;1.30;1.20;;;;;;;;;;1743375;28;20199;-78
2023/12/06 07:44:07;;;;;;;1.33;1.20;;;;;;;;;;1744154;28;20222;-78
2023/12/06 07:44:59;;;;;;;1.38;1.27;;;;;;;;;;1743118;28;20663;-76
2023/12/06 07:45:50;;;;;;;2.72;1.30;;;;;;;;;;1743202;28;20207;-78
2023/12/06 07:46:41;;;;;;;1.58;1.48;;;;;;;;;;1741971;28;20260;-76
2023/12/06 07:47:33;;;;;;;1.77;1.45;;;;;;;;;;1742347;28;20203;-75
2023/12/06 07:48:25;;;;;;;2.50;1.65;;;;;;;;;;1741719;28;20230;-75
2023/12/06 07:49:18;;;;;;;1.60;1.35;;;;;;;;;;1740763;28;20207;-78
2023/12/06 07:50:12;;;;;;;1.63;1.38;;;;;;;;;;1736240;28;20203;-76
2023/12/06 07:51:03;;;;;;;1.52;1.42;;;;;;;;;;1739079;28;20201;-76
2023/12/06 07:51:55;;;;;;;1.42;1.33;;;;;;;;;;1741152;28;20191;-76
2023/12/06 07:52:47;;;;;;;1.60;1.50;;;;;;;;;;1741099;28;20195;-75
2023/12/06 07:53:38;;;;;;;1.63;1.52;;;;;;;;;;1742086;28;20269;-77
2023/12/06 07:54:29;;;;;;;1.88;1.42;;;;;;;;;;1751042;28;20201;-78
2023/12/06 07:55:22;;;;;;;1.55;1.20;;;;;;;;;;1744318;28;20286;-79
2023/12/06 07:56:13;;;;;;;1.20;1.10;;;;;;;;;;1742770;28;20210;-78
2023/12/06 07:57:04;;;;;;;1.20;1.10;;;;;;;;;;1742484;28;20191;-78
2023/12/06 07:57:56;;;;;;;1.90;1.80;;;;;;;;;;1744010;28;20217;-78
2023/12/06 07:58:47;;;;;;;1.40;1.30;;;;;;;;;;1743600;28;20196;-78
2023/12/06 07:59:38;;;;;;;1.45;1.35;;;;;;;;;;1743316;28;20259;-77
2023/12/06 08:00:31;;;;;;;1.40;1.30;;;;;;;;;;1742838;28;20723;-77
2023/12/06 08:01:22;;;;;;;1.50;1.40;;;;;;;;;;1736348;28;20203;-77
2023/12/06 08:02:14;;;;;;;1.30;1.20;;;;;;;;;;1748596;28;20206;-78
2023/12/06 08:03:05;;;;;;;1.30;1.20;;;;;;;;;;1743781;28;20195;-78
2023/12/06 08:03:56;;;;;;;1.48;1.38;;;;;;;;;;1742632;28;20205;-78
2023/12/06 08:04:50;;;;;;;2.40;1.30;;;;;;;;;;1746137;28;20625;-78
2023/12/06 08:05:41;;;;;;;1.40;1.30;;;;;;;;;;1747504;28;20195;-79
2023/12/06 08:06:32;;;;;;;1.60;1.50;;;;;;;;;;1743165;28;20290;-77
2023/12/06 08:07:24;;;;;;;1.50;1.40;;;;;;;;;;1742368;28;20191;-77
2023/12/06 08:08:15;;;;;;;1.40;1.25;;;;;;;;;;1742380;28;20227;-77
2023/12/06 08:09:10;;;;;;;1.40;1.30;;;;;;;;;;1742456;28;20229;-77
2023/12/06 08:10:07;;;;;;;1.30;1.20;;;;;;;;;;1742036;28;20203;-77
2023/12/06 08:10:59;;;;;;;1.92;1.20;;;;;;;;;;1742483;28;20234;-76
2023/12/06 08:11:51;;;;;;;1.30;1.20;;;;;;;;;;1742298;28;20319;-76
2023/12/06 08:12:42;;;;;;;1.30;1.20;;;;;;;;;;1742383;28;20192;-77
2023/12/06 08:13:33;;;;;;;1.48;1.38;;;;;;;;;;1742230;28;20253;-76
2023/12/06 08:14:26;;;;;;;2.15;1.45;;;;;;;;;;1741720;28;20199;-77
2023/12/06 08:15:17;;;;;;;1.23;1.13;;;;;;;;;;1742405;28;20286;-76
2023/12/06 08:16:09;;;;;;;1.30;1.20;;;;;;;;;;1741789;28;20207;-76
2023/12/06 08:17:00;;;;;;;1.55;1.45;;;;;;;;;;1741162;28;20573;-76
2023/12/06 08:17:52;;;;;;;1.30;1.20;;;;;;;;;;1741737;28;20202;-76
2023/12/06 08:18:43;;;;;;;1.33;1.23;;;;;;;;;;1741974;28;20453;-77
2023/12/06 08:19:35;;;;;;;1.38;1.27;;;;;;;;;;1742505;28;20256;-77
2023/12/06 08:20:28;;;;;;;1.50;1.40;;;;;;;;;;1742527;28;20668;-77
2023/12/06 08:21:19;;;;;;;1.30;1.20;;;;;;;;;;1742156;28;20202;-77
2023/12/06 08:22:10;;;;;;;1.67;1.20;;;;;;;;;;1741908;28;20629;-77
2023/12/06 08:23:03;;;;;;;1.40;1.30;;;;;;;;;;1741897;28;20198;-77
2023/12/06 08:23:54;;;;;;;1.63;1.52;;;;;;;;;;1741813;28;20215;-77
2023/12/06 08:24:45;;;;;;;2.13;1.20;;;;;;;;;;1742753;28;20245;-76
2023/12/06 08:25:37;;;;;;;1.30;1.20;;;;;;;;;;1743081;28;20203;-77
2023/12/06 08:26:28;;;;;;;1.60;1.50;;;;;;;;;;1741144;28;20210;-76
2023/12/06 08:27:19;;;;;;;1.55;1.45;;;;;;;;;;1741702;28;20204;-76
2023/12/06 08:28:11;;;;;;;1.67;1.38;;;;;;;;;;1741688;28;20788;-76
2023/12/06 08:29:02;;;;;;;1.52;1.35;;;;;;;;;;1742168;28;20203;-76
2023/12/06 08:29:53;;;;;;;1.60;1.35;;;;;;;;;;1742624;28;20656;-77
2023/12/06 08:30:45;;;;;;;1.27;1.17;;;;;;;;;;1742710;28;20206;-77
2023/12/06 08:31:37;;;;;;;1.50;1.40;;;;;;;;;;1734986;28;20290;-77
2023/12/06 08:32:28;;;;;;;1.83;1.60;;;;;;;;;;1737058;28;20200;-77
2023/12/06 08:33:22;;;;;;;1.50;1.40;;;;;;;;;;1742115;28;20263;-76
2023/12/06 08:34:13;;;;;;;1.33;1.23;;;;;;;;;;1738984;28;20258;-75
2023/12/06 08:35:04;;;;;;;1.60;1.23;;;;;;;;;;1741625;28;20253;-77
2023/12/06 08:35:58;;;;;;;1.83;1.42;;;;;;;;;;1745536;28;20252;-76
2023/12/06 08:36:49;;;;;;;1.65;1.10;;;;;;;;;;1742165;28;20203;-77
2023/12/06 08:37:42;;;;;;;2.08;1.33;;;;;;;;;;1742109;28;20202;-76
2023/12/06 08:38:33;;;;;;;2.35;1.73;;;;;;;;;;1741744;28;20663;-76
2023/12/06 08:39:25;;;;;;;1.75;1.65;;;;;;;;;;1741816;28;20744;-77
2023/12/06 08:40:16;;;;;;;1.80;1.70;;;;;;;;;;1742054;28;20591;-76
2023/12/06 08:41:07;;;;;;;1.40;1.30;;;;;;;;;;1745243;28;20206;-77
2023/12/06 08:42:00;;;;;;;1.67;1.58;;;;;;;;;;1748482;28;20199;-76
2023/12/06 08:42:51;;;;;;;1.85;1.50;;;;;;;;;;1742834;28;20260;-77
2023/12/06 08:43:43;;;;;;;2.00;1.73;;;;;;;;;;1743018;28;20253;-76
2023/12/06 08:44:34;;;;;;;1.77;1.67;;;;;;;;;;1744435;28;20266;-76
2023/12/06 08:45:26;;;;;;;2.50;1.70;;;;;;;;;;1741962;28;20225;-76
2023/12/06 08:46:18;;;;;;;1.70;1.60;;;;;;;;;;1740628;28;20203;-76
2023/12/06 08:47:09;;;;;;;2.38;2.10;;;;;;;;;;1741595;28;20229;-76
2023/12/06 08:48:01;;;;;;;2.90;2.70;;;;;;;;;;1745023;28;20218;-76
2023/12/06 08:48:53;;;;;;;1.83;1.73;;;;;;;;;;1741645;28;20207;-76
2023/12/06 08:49:47;;;;;;;2.25;2.10;;;;;;;;;;1741748;28;20249;-76
2023/12/06 08:50:38;;;;;;;3.67;2.60;;;;;;;;;;1741878;28;20573;-77
2023/12/06 08:51:31;;;;;;;2.63;2.42;;;;;;;;;;1748565;28;20198;-76
2023/12/06 08:52:22;;;;;;;3.00;2.78;;;;;;;;;;1740980;28;20203;-76
2023/12/06 08:53:13;;;;;;;3.30;3.00;;;;;;;;;;1741706;28;20191;-76
2023/12/06 08:54:05;;;;;;;3.13;2.80;;;;;;;;;;1741432;28;20245;-76
2023/12/06 08:54:57;;;;;;;3.50;3.20;;;;;;;;;;1741629;28;20210;-76
2023/12/06 08:55:50;;;;;;;4.25;3.30;;;;;;;;;;1741660;28;20206;-76
2023/12/06 08:56:42;;;;;;;4.20;3.90;;;;;;;;;;1741012;28;20732;-76
2023/12/06 08:57:34;;;;;;;3.95;3.65;;;;;;;;;;1741882;28;20282;-76
2023/12/06 08:58:25;;;;;;;4.15;3.85;;;;;;;;;;1748384;28;20234;-76
2023/12/06 08:59:16;;;;;;;4.50;4.10;;;;;;;;;;1742302;28;20290;-76
2023/12/06 09:00:12;;;;;;;4.40;3.80;;;;;;;;;;1741158;28;20199;-76
2023/12/06 09:01:03;;;;;;;4.40;3.70;;;;;;;;;;1738849;28;20195;-76
2023/12/06 09:01:55;;;;;;;5.30;4.80;;;;;;;;;;1741748;28;20290;-77
2023/12/06 09:02:47;;;;;;;5.30;4.90;;;;;;;;;;1741630;28;20199;-76
2023/12/06 09:03:39;;;;;;;5.22;4.72;;;;;;;;;;1743898;28;20226;-77
2023/12/06 09:04:34;;;;;;;6.65;5.13;;;;;;;;;;1751800;28;20281;-77
2023/12/06 09:05:25;;;;;;;6.28;5.68;;;;;;;;;;1744613;28;20687;-76
2023/12/06 09:06:16;;;;;;;5.20;4.65;;;;;;;;;;1741717;28;20195;-77
2023/12/06 09:07:09;;;;;;;5.40;4.97;;;;;;;;;;1741692;28;20195;-76
2023/12/06 09:08:00;;;;;;;5.90;5.40;;;;;;;;;;1745122;28;20241;-77
2023/12/06 09:08:52;;;;;;;5.70;5.28;;;;;;;;;;1745803;28;20252;-77
2023/12/06 09:09:46;;;;;;;5.60;5.20;;;;;;;;;;1736158;28;20195;-76
2023/12/06 09:10:38;;;;;;;5.93;5.43;;;;;;;;;;1741026;28;20188;-76
2023/12/06 09:11:30;;;;;;;5.43;5.00;;;;;;;;;;1741236;28;20211;-76
2023/12/06 09:12:21;;;;;;;5.72;5.25;;;;;;;;;;1740824;28;20238;-75
2023/12/06 09:13:12;;;;;;;5.90;5.40;;;;;;;;;;1742249;28;20656;-75
2023/12/06 09:14:05;;;;;;;5.65;5.15;;;;;;;;;;1745133;28;20198;-76
2023/12/06 09:14:56;;;;;;;6.60;4.75;;;;;;;;;;1744801;28;20209;-76
2023/12/06 09:15:47;;;;;;;5.10;4.70;;;;;;;;;;1741068;28;20613;-75
2023/12/06 09:16:39;;;;;;;5.00;4.60;;;;;;;;;;1740131;28;20214;-76
2023/12/06 09:17:31;;;;;;;6.10;5.60;;;;;;;;;;1740834;28;20218;-76
2023/12/06 09:18:24;;;;;;;5.95;5.45;;;;;;;;;;1734168;28;20315;-76
2023/12/06 09:19:16;;;;;;;5.60;5.10;;;;;;;;;;1740200;28;20199;-76
2023/12/06 09:20:09;;;;;;;5.68;5.18;;;;;;;;;;1740968;28;20278;-75
2023/12/06 09:21:03;;;;;;;6.22;5.68;;;;;;;;;;1744684;28;20218;-76
2023/12/06 09:21:54;;;;;;;5.70;5.20;;;;;;;;;;1745006;28;20227;-76
2023/12/06 09:22:47;;;;;;;7.18;6.55;;;;;;;;;;1742758;28;20682;-75
2023/12/06 09:23:39;;;;;;;5.63;5.22;;;;;;;;;;1747864;28;20229;-75
2023/12/06 09:24:30;;;;;;;6.00;5.40;;;;;;;;;;1744617;28;20206;-76
2023/12/06 09:25:22;;;;;;;6.05;5.55;;;;;;;;;;1740955;28;20199;-76
2023/12/06 09:26:15;;;;;;;5.70;5.25;;;;;;;;;;1744455;28;20202;-76
2023/12/06 09:27:07;;;;;;;6.80;6.20;;;;;;;;;;1740745;28;20249;-76
2023/12/06 09:27:58;;;;;;;6.10;5.60;;;;;;;;;;1743781;28;20230;-76
2023/12/06 09:28:50;;;;;;;6.80;6.30;;;;;;;;;;1742725;28;20195;-76
2023/12/06 09:29:45;;;;;;;6.60;5.90;;;;;;;;;;1741077;28;20540;-75
2023/12/06 09:30:36;;;;;;;6.20;5.70;;;;;;;;;;1740906;28;20257;-76
2023/12/06 09:31:28;;;;;;;6.60;6.07;;;;;;;;;;1741121;28;20656;-75
2023/12/06 09:32:19;;;;;;;7.07;6.50;;;;;;;;;;1740999;28;20781;-76
2023/12/06 09:33:11;;;;;;;6.18;5.68;;;;;;;;;;1741384;28;20191;-76
2023/12/06 09:34:02;;;;;;;6.35;5.75;;;;;;;;;;1740815;28;20207;-76
2023/12/06 09:34:53;;;;;;;7.13;6.55;;;;;;;;;;1741299;28;20203;-76
2023/12/06 09:35:45;;;;;;;6.18;5.57;;;;;;;;;;1740762;28;20719;-76
2023/12/06 09:36:36;;;;;;;7.53;6.93;;;;;;;;;;1740602;28;20210;-76
2023/12/06 09:37:28;;;;;;;6.40;5.90;;;;;;;;;;1747905;28;20202;-76
2023/12/06 09:38:21;;;;;;;7.55;6.85;;;;;;;;;;1740796;28;20230;-76
2023/12/06 09:39:15;;;;;;;7.38;6.75;;;;;;;;;;1740998;28;20210;-76
2023/12/06 09:40:07;;;;;;;7.22;6.60;;;;;;;;;;1740823;28;20199;-76
2023/12/06 09:41:00;;;;;;;6.47;5.93;;;;;;;;;;1744454;28;20222;-76
2023/12/06 09:41:52;;;;;;;7.50;6.82;;;;;;;;;;1742757;28;20264;-76
2023/12/06 09:42:44;;;;;;;7.28;6.68;;;;;;;;;;1740910;28;20203;-76
2023/12/06 09:43:36;;;;;;;6.88;6.18;;;;;;;;;;1740995;28;20740;-76
2023/12/06 09:44:27;;;;;;;7.30;6.60;;;;;;;;;;1740921;28;20234;-76
2023/12/06 09:45:19;;;;;;;7.43;6.82;;;;;;;;;;1740906;28;20199;-76
2023/12/06 09:46:12;;;;;;;7.30;6.68;;;;;;;;;;1742105;28;20203;-76
2023/12/06 09:47:04;;;;;;;7.60;6.90;;;;;;;;;;1744098;28;20206;-75
2023/12/06 09:47:56;;;;;;;7.28;6.72;;;;;;;;;;1743959;28;20229;-76
2023/12/06 09:48:48;;;;;;;7.60;6.90;;;;;;;;;;1747783;28;20663;-76
2023/12/06 09:49:39;;;;;;;7.47;6.80;;;;;;;;;;1741317;28;20595;-75
2023/12/06 09:50:30;;;;;;;8.40;7.60;;;;;;;;;;1740997;28;20253;-76
2023/12/06 09:51:23;;;;;;;7.10;6.40;;;;;;;;;;1742770;28;20230;-76
2023/12/06 09:52:18;;;;;;;6.90;6.40;;;;;;;;;;1740938;28;20293;-76
2023/12/06 09:53:09;;;;;;;6.97;6.38;;;;;;;;;;1740922;28;20264;-75
2023/12/06 09:54:03;;;;;;;7.70;7.00;;;;;;;;;;1740910;28;20191;-76
2023/12/06 09:54:55;;;;;;;6.90;6.30;;;;;;;;;;1740043;28;20207;-76
2023/12/06 09:55:47;;;;;;;7.38;6.78;;;;;;;;;;1742563;28;20596;-76
2023/12/06 09:56:38;;;;;;;6.47;5.95;;;;;;;;;;1740865;28;20210;-76
2023/12/06 09:57:29;;;;;;;7.50;6.63;;;;;;;;;;1748021;28;20198;-75
2023/12/06 09:58:22;;;;;;;7.65;7.05;;;;;;;;;;1741045;28;20317;-76
2023/12/06 09:59:13;;;;;;;7.75;7.15;;;;;;;;;;1740752;28;20210;-75
2023/12/06 10:00:06;;;;;;;7.43;6.72;;;;;;;;;;1740795;28;20192;-75
2023/12/06 10:00:57;;;;;;;7.88;7.18;;;;;;;;;;1740830;28;20634;-75
2023/12/06 10:01:48;;;;;;;8.57;7.80;;;;;;;;;;1740944;28;20226;-75
2023/12/06 10:02:53;;;;;;;8.15;7.35;;;;;;;;;;1740812;28;20199;-75
2023/12/06 10:03:46;;;;;;;7.40;6.80;;;;;;;;;;1740863;28;20203;-75
2023/12/06 10:04:37;;;;;;;8.00;7.30;;;;;;;;;;1741126;28;20207;-75
2023/12/06 10:05:29;;;;;;;8.00;7.28;;;;;;;;;;1747875;28;20674;-75
2023/12/06 10:06:20;;;;;;;8.50;7.80;;;;;;;;;;1739229;28;20861;-75
2023/12/06 10:07:11;;;;;;;8.43;7.65;;;;;;;;;;1740804;28;20568;-75
2023/12/06 10:08:03;;;;;;;7.95;7.25;;;;;;;;;;1742564;28;20242;-75
2023/12/06 10:08:55;;;;;;;8.00;7.30;;;;;;;;;;1740765;28;20207;-75
2023/12/06 10:09:50;;;;;;;7.75;7.13;;;;;;;;;;1740909;28;20195;-75
2023/12/06 10:10:42;;;;;;;7.28;6.57;;;;;;;;;;1740778;28;20672;-75
2023/12/06 10:11:33;;;;;;;7.20;6.53;;;;;;;;;;1740943;28;20573;-74
2023/12/06 10:12:25;;;;;;;6.95;6.35;;;;;;;;;;1740820;28;20586;-75
2023/12/06 10:13:17;;;;;;;7.85;7.15;;;;;;;;;;1746575;28;20285;-75
2023/12/06 10:14:16;;;;;;;7.80;7.20;;;;;;;;;;1741399;28;20207;-76
2023/12/06 10:15:10;;;;;;;8.07;7.38;;;;;;;;;;1745666;28;20312;-75
2023/12/06 10:16:02;;;;;;;8.38;7.57;;;;;;;;;;1745469;28;20237;-75
2023/12/06 10:16:55;;;;;;;8.20;7.50;;;;;;;;;;1740173;28;20203;-74
2023/12/06 10:17:46;;;;;;;8.65;7.85;;;;;;;;;;1740735;28;20203;-75
2023/12/06 10:18:37;;;;;;;8.27;7.57;;;;;;;;;;1741327;28;20229;-75
2023/12/06 10:19:31;;;;;;;7.72;7.13;;;;;;;;;;1746794;28;20202;-75
2023/12/06 10:20:24;;;;;;;11.45;10.38;;;;;;;;;;1740731;28;20215;-75
2023/12/06 10:21:18;;;;;;;12.40;11.20;;;;;;;;;;1746610;28;20912;-75
2023/12/06 10:22:09;;;;;;;10.07;9.18;;;;;;;;;;1743814;28;20203;-75
2023/12/06 10:23:01;;;;;;;8.63;7.93;;;;;;;;;;1744061;28;20245;-75
2023/12/06 10:23:54;;;;;;;9.07;8.18;;;;;;;;;;1740723;28;20678;-75
2023/12/06 10:24:45;;;;;;;7.90;7.18;;;;;;;;;;1740764;28;20199;-74
2023/12/06 10:25:42;;;;;;;9.18;7.80;;;;;;;;;;1741205;28;20265;-75
2023/12/06 10:26:33;;;;;;;8.25;7.55;;;;;;;;;;1740475;28;20218;-75
2023/12/06 10:27:24;;;;;;;8.73;7.93;;;;;;;;;;1737578;28;20223;-75
2023/12/06 10:28:17;;;;;;;8.73;7.97;;;;;;;;;;1746439;28;20227;-76
2023/12/06 10:29:08;;;;;;;8.75;7.85;;;;;;;;;;1744654;28;20199;-75
2023/12/06 10:29:59;;;;;;;9.40;8.50;;;;;;;;;;1740887;28;20603;-75
2023/12/06 10:31:00;;;;;;;8.70;7.90;;;;;;;;;;1740624;28;20210;-75
2023/12/06 10:31:51;;;;;;;9.30;8.50;;;;;;;;;;1743247;28;20237;-75
2023/12/06 10:32:42;;;;;;;9.50;8.65;;;;;;;;;;1747514;28;20202;-75
2023/12/06 10:33:34;;;;;;;9.32;8.45;;;;;;;;;;1740877;28;20652;-75
2023/12/06 10:34:25;;;;;;;8.90;8.10;;;;;;;;;;1747707;28;20206;-76
2023/12/06 10:35:17;;;;;;;9.20;8.40;;;;;;;;;;1741656;28;20199;-75
2023/12/06 10:36:11;;;;;;;9.50;8.70;;;;;;;;;;1740458;28;20198;-75
2023/12/06 10:37:02;;;;;;;8.95;8.18;;;;;;;;;;1740524;28;20682;-75
2023/12/06 10:37:54;;;;;;;8.73;8.02;;;;;;;;;;1740764;28;20719;-75
2023/12/06 10:38:46;;;;;;;9.88;8.98;;;;;;;;;;1740774;28;20572;-75
2023/12/06 10:39:38;;;;;;;9.60;8.80;;;;;;;;;;1740752;28;20265;-75
2023/12/06 10:40:30;;;;;;;9.65;8.85;;;;;;;;;;1740796;28;20199;-75
2023/12/06 10:41:25;;;;;;;9.20;8.40;;;;;;;;;;1740671;28;20230;-75
2023/12/06 10:42:19;;;;;;;9.75;8.95;;;;;;;;;;1740672;28;20207;-74
2023/12/06 10:43:12;;;;;;;8.65;7.95;;;;;;;;;;1745831;28;20205;-75
2023/12/06 10:44:04;;;;;;;9.65;8.75;;;;;;;;;;1743475;28;20196;-75
2023/12/06 10:44:55;;;;;;;9.23;8.43;;;;;;;;;;1740735;28;20198;-75
2023/12/06 10:45:50;;;;;;;8.80;8.10;;;;;;;;;;1740837;28;20545;-75
2023/12/06 10:46:42;;;;;;;9.15;8.35;;;;;;;;;;1739638;28;20204;-75
2023/12/06 10:47:33;;;;;;;8.35;7.55;;;;;;;;;;1740735;28;20290;-75
2023/12/06 10:48:26;;;;;;;7.90;7.22;;;;;;;;;;1740506;28;20227;-75
2023/12/06 10:49:18;;;;;;;8.30;7.60;;;;;;;;;;1740631;28;20210;-76
2023/12/06 10:50:09;;;;;;;7.50;6.90;;;;;;;;;;1740597;28;20221;-75
2023/12/06 10:51:02;;;;;;;8.13;7.30;;;;;;;;;;1740646;28;20198;-75
2023/12/06 10:51:53;;;;;;;8.38;7.68;;;;;;;;;;1740737;28;20203;-76
2023/12/06 10:52:45;;;;;;;7.85;7.15;;;;;;;;;;1742020;28;20558;-76
2023/12/06 10:53:39;;;;;;;8.50;7.80;;;;;;;;;;1747470;28;20199;-75
2023/12/06 10:54:30;;;;;;;8.50;7.70;;;;;;;;;;1733679;28;20207;-75
2023/12/06 10:55:22;;;;;;;8.13;7.32;;;;;;;;;;1746843;28;20201;-75
2023/12/06 10:56:15;;;;;;;8.02;7.32;;;;;;;;;;1743997;28;20279;-75
2023/12/06 10:57:08;;;;;;;8.27;7.50;;;;;;;;;;1740257;28;20587;-75
2023/12/06 10:58:00;;;;;;;8.50;7.70;;;;;;;;;;1744007;28;20604;-75
2023/12/06 10:58:53;;;;;;;6.80;6.20;;;;;;;;;;1745135;28;20264;-76
2023/12/06 10:59:44;;;;;;;7.88;7.18;;;;;;;;;;1740577;28;20217;-75
2023/12/06 11:00:35;;;;;;;7.40;6.70;;;;;;;;;;1740624;28;20202;-76
2023/12/06 11:01:28;;;;;;;7.38;6.78;;;;;;;;;;1746032;28;20303;-75
2023/12/06 11:02:19;;;;;;;8.88;8.07;;;;;;;;;;1740574;28;20218;-75
2023/12/06 11:03:11;;;;;;;7.95;7.25;;;;;;;;;;1740527;28;20225;-74
2023/12/06 11:04:02;;;;;;;8.32;7.50;;;;;;;;;;1740474;28;20200;-75
2023/12/06 11:04:57;;;;;;;7.82;7.03;;;;;;;;;;1743322;28;20203;-74
2023/12/06 11:05:51;;;;;;;7.65;7.03;;;;;;;;;;1741391;28;20230;-74
2023/12/06 11:06:46;;;;;;;8.73;8.02;;;;;;;;;;1740719;28;20203;-75
2023/12/06 11:07:42;;;;;;;7.60;7.00;;;;;;;;;;1742203;28;20207;-76
2023/12/06 11:08:40;;;;;;;7.65;7.03;;;;;;;;;;1748806;28;20226;-76
2023/12/06 11:09:35;;;;;;;7.78;6.97;;;;;;;;;;1740365;28;20606;-75
2023/12/06 11:10:32;;;;;;;8.45;7.68;;;;;;;;;;1735044;28;20265;-75
2023/12/06 11:11:32;;;;;;;7.53;6.82;;;;;;;;;;1741595;28;20195;-75
2023/12/06 11:12:29;;;;;;;8.07;7.30;;;;;;;;;;1741727;28;20214;-75